createdAt,value
2018-09-25T00:02:13.266Z,100030.56
2018-09-25T00:04:47.952Z,100032.85
2018-09-25T00:07:22.513Z,100035.84
2018-09-25T00:09:57.243Z,100035.56
2018-09-25T00:12:32.047Z,100033.31
2018-09-25T00:15:06.769Z,100038.66
2018-09-25T00:17:41.575Z,100039.66
2018-09-25T00:20:16.155Z,100036.52
2018-09-25T00:22:50.859Z,100042.71
2018-09-25T00:25:26.163Z,100046.18
2018-09-25T00:28:01.915Z,100042.75
2018-09-25T00:30:36.751Z,100045.77
2018-09-25T00:33:11.695Z,100041.53
2018-09-25T00:35:46.319Z,100045.50
2018-09-25T00:38:21.393Z,100047.70
2018-09-25T00:40:56.061Z,100056.48
2018-09-25T00:43:31.033Z,100050.91
2018-09-25T00:46:05.692Z,100049.34
2018-09-25T00:48:40.557Z,100051.70
2018-09-25T00:51:15.523Z,100057.41
2018-09-25T00:53:50.312Z,100048.72
2018-09-25T00:56:25.219Z,100052.22
2018-09-25T00:59:00.108Z,100046.86
2018-09-25T01:01:34.811Z,100034.63
2018-09-25T01:04:09.551Z,100042.12
2018-09-25T01:06:44.497Z,100039.28
2018-09-25T01:09:19.268Z,100039.32
2018-09-25T01:11:54.020Z,100038.34
2018-09-25T01:14:29.010Z,100042.72
2018-09-25T01:17:03.799Z,100040.55
2018-09-25T01:19:38.704Z,100038.34
2018-09-25T01:22:13.438Z,100040.06
2018-09-25T01:24:48.328Z,100044.37
2018-09-25T01:27:23.563Z,100047.80
2018-09-25T01:29:58.676Z,100044.75
2018-09-25T01:32:33.620Z,100050.33
2018-09-25T01:35:08.805Z,100042.62
2018-09-25T01:37:43.860Z,100047.09
2018-09-25T01:40:19.238Z,100040.36
2018-09-25T01:42:54.516Z,100045.19
2018-09-25T01:45:29.667Z,100043.86
2018-09-25T01:48:04.538Z,100035.59
2018-09-25T01:50:39.147Z,100037.06
2018-09-25T01:53:14.023Z,100035.34
2018-09-25T01:55:49.280Z,100028.93
2018-09-25T01:58:24.263Z,100035.83
2018-09-25T02:00:59.138Z,100038.81
2018-09-25T02:03:33.872Z,100033.98
2018-09-25T02:06:08.697Z,100044.91
2018-09-25T02:08:43.683Z,100037.19
2018-09-25T02:11:18.863Z,100034.24
2018-09-25T02:13:53.817Z,100037.28
2018-09-25T02:16:28.798Z,100036.41
2018-09-25T02:19:03.518Z,100031.69
2018-09-25T02:21:38.367Z,100037.74
2018-09-25T02:24:13.363Z,100036.94
2018-09-25T02:26:48.251Z,100042.50
2018-09-25T02:29:23.347Z,100039.63
2018-09-25T02:31:58.502Z,100039.66
2018-09-25T02:34:33.616Z,100039.78
2018-09-25T02:37:08.643Z,100041.11
2018-09-25T02:39:43.733Z,100043.73
2018-09-25T02:42:18.752Z,100041.14
2018-09-25T02:44:53.771Z,100044.54
2018-09-25T02:47:28.835Z,100044.12
2018-09-25T02:50:03.840Z,100050.20
2018-09-25T02:52:38.959Z,100050.27
2018-09-25T02:55:13.983Z,100051.17
2018-09-25T02:57:48.893Z,100050.87
2018-09-25T03:00:23.718Z,100051.80
2018-09-25T03:02:58.927Z,100048.31
2018-09-25T03:05:33.779Z,100058.22
2018-09-25T03:08:08.695Z,100057.50
2018-09-25T03:10:43.761Z,100050.44
2018-09-25T03:13:18.700Z,100056.64
2018-09-25T03:15:53.670Z,100060.61
2018-09-25T03:18:28.655Z,100061.08
2018-09-25T03:21:03.831Z,100058.44
2018-09-25T03:23:38.931Z,100057.54
2018-09-25T03:26:14.480Z,100061.59
2018-09-25T03:28:49.902Z,100063.34
2018-09-25T03:31:24.747Z,100061.70
2018-09-25T03:33:59.603Z,100054.49
2018-09-25T03:36:34.435Z,100059.69
2018-09-25T03:39:10.391Z,100056.68
2018-09-25T03:41:45.328Z,100054.07
2018-09-25T03:44:20.508Z,100059.17
2018-09-25T03:46:55.514Z,100063.78
2018-09-25T03:49:30.571Z,100066.77
2018-09-25T03:52:05.480Z,100069.78
2018-09-25T03:54:40.584Z,100066.20
2018-09-25T03:57:15.779Z,100058.33
2018-09-25T03:59:50.784Z,100065.70
2018-09-25T04:02:25.672Z,100067.81
2018-09-25T04:05:00.803Z,100082.00
2018-09-25T04:07:35.916Z,100078.17
2018-09-25T04:10:11.055Z,100077.74
2018-09-25T04:12:46.177Z,100085.15
2018-09-25T04:15:21.063Z,100087.82
2018-09-25T04:17:55.959Z,100084.41
2018-09-25T04:20:31.115Z,100086.63
2018-09-25T04:23:06.597Z,100090.57
2018-09-25T04:25:41.664Z,100102.61
2018-09-25T04:28:16.887Z,100095.41
2018-09-25T04:30:52.107Z,100101.45
2018-09-25T04:33:26.938Z,100096.72
2018-09-25T04:36:01.914Z,100099.71
2018-09-25T04:38:37.095Z,100104.48
2018-09-25T04:41:12.146Z,100106.25
2018-09-25T04:43:47.172Z,100101.95
2018-09-25T04:46:22.139Z,100104.94
2018-09-25T04:48:57.203Z,100114.45
2018-09-25T04:51:32.008Z,100110.66
2018-09-25T04:54:06.945Z,100115.89
2018-09-25T04:56:42.101Z,100118.89
2018-09-25T04:59:17.167Z,100125.02
2018-09-25T05:01:52.234Z,100131.53
2018-09-25T05:04:27.080Z,100136.76
2018-09-25T05:07:02.342Z,100138.49
2018-09-25T05:09:37.742Z,100144.96
2018-09-25T05:12:12.926Z,100142.00
2018-09-25T05:14:48.240Z,100135.98
2018-09-25T05:17:23.187Z,100135.59
2018-09-25T05:19:58.073Z,100145.50
2018-09-25T05:22:32.972Z,100142.09
2018-09-25T05:25:07.838Z,100147.27
2018-09-25T05:27:42.928Z,100142.94
2018-09-25T05:30:17.922Z,100147.64
2018-09-25T05:32:52.852Z,100154.94
2018-09-25T05:35:27.924Z,100151.78
2018-09-25T05:38:02.834Z,100154.25
2018-09-25T05:40:38.229Z,100159.72
2018-09-25T05:43:13.583Z,100152.13
2018-09-25T05:45:48.455Z,100161.42
2018-09-25T05:48:23.438Z,100159.36
2018-09-25T05:50:58.719Z,100165.98
2018-09-25T05:53:33.812Z,100165.30
2018-09-25T05:56:08.695Z,100168.03
2018-09-25T05:58:43.711Z,100166.30
2018-09-25T06:01:18.671Z,100162.91
2018-09-25T06:03:53.687Z,100173.74
2018-09-25T06:06:28.548Z,100172.14
2018-09-25T06:09:03.704Z,100171.73
2018-09-25T06:11:40.092Z,100180.86
2018-09-25T06:14:15.129Z,100179.48
2018-09-25T06:16:49.907Z,100179.10
2018-09-25T06:19:24.627Z,100188.73
2018-09-25T06:21:59.680Z,100193.00
2018-09-25T06:24:34.412Z,100193.98
2018-09-25T06:27:09.159Z,100192.91
2018-09-25T06:29:43.907Z,100197.48
2018-09-25T06:32:19.132Z,100201.94
2018-09-25T06:34:53.930Z,100210.88
2018-09-25T06:37:29.139Z,100215.38
2018-09-25T06:40:09.962Z,100211.20
2018-09-25T06:42:44.615Z,100214.27
2018-09-25T06:45:19.497Z,100218.89
2018-09-25T06:47:54.112Z,100219.70
2018-09-25T06:50:28.854Z,100224.27
2018-09-25T06:53:03.568Z,100228.61
2018-09-25T06:55:38.260Z,100232.84
2018-09-25T06:58:12.880Z,100234.48
2018-09-25T07:00:47.600Z,100239.77
2018-09-25T07:03:22.362Z,100235.34
2018-09-25T07:05:58.233Z,100233.63
2018-09-25T07:08:32.968Z,100239.05
2018-09-25T07:11:07.831Z,100244.71
2018-09-25T07:13:42.493Z,100244.70
2018-09-25T07:16:17.166Z,100239.00
2018-09-25T07:18:51.956Z,100243.84
2018-09-25T07:21:26.774Z,100239.66
2018-09-25T07:24:01.421Z,100250.55
2018-09-25T07:26:36.340Z,100246.11
2018-09-25T07:29:10.920Z,100248.34
2018-09-25T07:31:45.608Z,100246.49
2018-09-25T07:34:20.364Z,100252.23
2018-09-25T07:36:55.027Z,100260.72
2018-09-25T07:39:29.944Z,100249.05
2018-09-25T07:42:04.714Z,100248.38
2018-09-25T07:44:39.556Z,100254.17
2018-09-25T07:47:14.380Z,100258.11
2018-09-25T07:49:49.276Z,100258.20
2018-09-25T07:52:24.104Z,100251.13
2018-09-25T07:54:58.925Z,100253.89
2018-09-25T07:57:33.584Z,100249.98
2018-09-25T08:00:08.669Z,100246.19
2018-09-25T08:02:43.672Z,100256.41
2018-09-25T08:05:19.232Z,100245.88
2018-09-25T08:07:53.900Z,100244.37
2018-09-25T08:10:28.865Z,100239.31
2018-09-25T08:13:03.702Z,100242.69
2018-09-25T08:15:38.523Z,100236.87
2018-09-25T08:18:13.211Z,100241.48
2018-09-25T08:20:48.104Z,100240.84
2018-09-25T08:23:23.019Z,100236.06
2018-09-25T08:25:58.575Z,100239.84
2018-09-25T08:28:33.808Z,100240.09
2018-09-25T08:31:11.231Z,100241.31
2018-09-25T08:33:46.004Z,100248.81
2018-09-25T08:36:22.724Z,100246.09
2018-09-25T08:38:57.981Z,100245.98
2018-09-25T08:41:33.094Z,100240.76
2018-09-25T08:44:08.282Z,100244.45
2018-09-25T08:46:43.933Z,100239.17
2018-09-25T08:49:19.172Z,100242.02
2018-09-25T08:51:54.228Z,100245.02
2018-09-25T08:54:29.211Z,100247.56
2018-09-25T08:57:03.991Z,100246.14
2018-09-25T08:59:38.988Z,100240.09
2018-09-25T09:02:14.155Z,100239.53
2018-09-25T09:04:49.005Z,100244.69
2018-09-25T09:07:23.937Z,100239.89
2018-09-25T09:09:58.680Z,100239.91
2018-09-25T09:12:33.511Z,100244.73
2018-09-25T09:15:08.244Z,100247.31
2018-09-25T09:17:43.376Z,100242.14
2018-09-25T09:20:18.229Z,100245.03
2018-09-25T09:22:53.275Z,100251.68
2018-09-25T09:25:28.000Z,100248.48
2018-09-25T09:28:02.748Z,100245.73
2018-09-25T09:30:37.578Z,100252.19
2018-09-25T09:33:12.791Z,100249.05
2018-09-25T09:35:47.540Z,100245.33
2018-09-25T09:38:22.382Z,100248.29
2018-09-25T09:40:57.280Z,100250.53
2018-09-25T09:43:32.535Z,100249.06
2018-09-25T09:46:07.262Z,100252.20
2018-09-25T09:48:42.094Z,100251.16
2018-09-25T09:51:16.859Z,100240.65
2018-09-25T09:53:51.556Z,100247.61
2018-09-25T09:56:26.304Z,100252.52
2018-09-25T09:59:01.245Z,100236.78
2018-09-25T10:01:35.973Z,100233.77
2018-09-25T10:04:10.675Z,100239.09
2018-09-25T10:06:45.733Z,100240.23
2018-09-25T10:09:20.508Z,100234.47
2018-09-25T10:11:55.068Z,100228.55
2018-09-25T10:14:29.877Z,100234.26
2018-09-25T10:17:04.484Z,100235.57
2018-09-25T10:19:39.271Z,100229.73
2018-09-25T10:22:13.995Z,100235.05
2018-09-25T10:24:48.843Z,100223.30
2018-09-25T10:27:23.617Z,100234.66
2018-09-25T10:29:58.544Z,100226.27
2018-09-25T10:32:33.569Z,100226.02
2018-09-25T10:35:08.299Z,100224.22
2018-09-25T10:37:43.134Z,100207.55
2018-09-25T10:40:17.969Z,100224.66
2018-09-25T10:42:52.790Z,100223.69
2018-09-25T10:45:27.795Z,100220.16
2018-09-25T10:48:02.355Z,100224.26
2018-09-25T10:50:37.182Z,100227.90
2018-09-25T10:53:11.846Z,100210.88
2018-09-25T10:55:46.994Z,100215.09
2018-09-25T10:58:21.863Z,100209.50
2018-09-25T11:00:56.719Z,100215.82
2018-09-25T11:03:31.512Z,100200.89
2018-09-25T11:06:06.520Z,100201.31
2018-09-25T11:08:41.268Z,100195.35
2018-09-25T11:11:16.535Z,100186.02
2018-09-25T11:13:51.284Z,100191.91
2018-09-25T11:16:25.987Z,100184.08
2018-09-25T11:19:00.755Z,100185.84
2018-09-25T11:21:35.384Z,100176.13
2018-09-25T11:24:10.116Z,100177.51
2018-09-25T11:26:45.172Z,100170.98
2018-09-25T11:29:19.971Z,100171.77
2018-09-25T11:31:54.721Z,100169.16
2018-09-25T11:34:29.309Z,100172.69
2018-09-25T11:37:04.291Z,100163.55
2018-09-25T11:39:39.001Z,100162.48
2018-09-25T11:42:13.858Z,100156.16
2018-09-25T11:44:48.755Z,100153.59
2018-09-25T11:47:23.554Z,100159.03
2018-09-25T11:49:58.102Z,100147.86
2018-09-25T11:52:32.988Z,100156.81
2018-09-25T11:55:07.871Z,100161.77
2018-09-25T11:57:42.676Z,100149.19
2018-09-25T12:00:17.376Z,100162.66
2018-09-25T12:02:52.115Z,100160.71
2018-09-25T12:05:26.773Z,100145.17
2018-09-25T12:08:01.563Z,100149.47
2018-09-25T12:10:36.295Z,100144.60
2018-09-25T12:13:10.979Z,100136.41
2018-09-25T12:15:45.932Z,100138.56
2018-09-25T12:18:20.688Z,100134.17
2018-09-25T12:20:55.285Z,100140.58
2018-09-25T12:23:29.939Z,100132.02
2018-09-25T12:26:04.847Z,100133.78
2018-09-25T12:28:39.740Z,100138.43
2018-09-25T12:31:14.552Z,100134.84
2018-09-25T12:33:49.436Z,100136.90
2018-09-25T12:36:24.334Z,100135.31
2018-09-25T12:38:59.572Z,100129.88
2018-09-25T12:41:34.716Z,100132.02
2018-09-25T12:44:09.912Z,100133.64
2018-09-25T12:46:44.632Z,100134.66
2018-09-25T12:49:19.371Z,100127.86
2018-09-25T12:51:54.116Z,100130.97
2018-09-25T12:54:28.925Z,100127.59
2018-09-25T12:57:03.768Z,100116.80
2018-09-25T12:59:38.587Z,100117.67
2018-09-25T13:02:13.851Z,100123.50
2018-09-25T13:04:48.503Z,100124.98
2018-09-25T13:07:23.363Z,100131.56
2018-09-25T13:09:58.360Z,100124.98
2018-09-25T13:12:33.147Z,100118.81
2018-09-25T13:15:07.828Z,100125.75
2018-09-25T13:17:42.534Z,100131.50
2018-09-25T13:20:17.259Z,100127.11
2018-09-25T13:22:52.088Z,100124.17
2018-09-25T13:25:27.038Z,100125.80
2018-09-25T13:28:01.769Z,100126.76
2018-09-25T13:30:36.540Z,100133.83
2018-09-25T13:33:11.652Z,100123.20
2018-09-25T13:35:46.646Z,100122.77
2018-09-25T13:38:21.287Z,100115.22
2018-09-25T13:40:55.843Z,100111.14
2018-09-25T13:43:30.679Z,100122.98
2018-09-25T13:46:05.419Z,100120.80
2018-09-25T13:48:40.026Z,100109.95
2018-09-25T13:51:14.751Z,100091.93
2018-09-25T13:53:49.412Z,100104.38
2018-09-25T13:56:24.481Z,100100.34
2018-09-25T13:58:59.480Z,100089.03
2018-09-25T14:01:34.151Z,100091.97
2018-09-25T14:04:08.975Z,100086.31
2018-09-25T14:06:43.588Z,100091.40
2018-09-25T14:09:18.265Z,100093.95
2018-09-25T14:11:53.163Z,100093.33
2018-09-25T14:14:27.751Z,100079.34
2018-09-25T14:17:02.351Z,100071.74
2018-09-25T14:19:37.236Z,100078.15
2018-09-25T14:22:12.105Z,100075.60
2018-09-25T14:24:46.831Z,100078.89
2018-09-25T14:27:21.900Z,100078.02
2018-09-25T14:29:56.667Z,100082.41
2018-09-25T14:32:31.336Z,100096.92
2018-09-25T14:35:06.048Z,100102.10
2018-09-25T14:37:40.752Z,100098.46
2018-09-25T14:40:15.468Z,100090.88
2018-09-25T14:42:50.250Z,100080.66
2018-09-25T14:45:24.911Z,100078.77
2018-09-25T14:47:59.713Z,100084.30
2018-09-25T14:50:34.411Z,100081.09
2018-09-25T14:53:09.446Z,100079.39
2018-09-25T14:55:44.216Z,100076.09
2018-09-25T14:58:18.972Z,100073.55
2018-09-25T15:00:53.942Z,100067.36
2018-09-25T15:03:28.803Z,100065.96
2018-09-25T15:06:03.808Z,100065.56
2018-09-25T15:08:38.767Z,100067.89
2018-09-25T15:11:13.418Z,100069.56
2018-09-25T15:13:48.332Z,100068.06
2018-09-25T15:16:22.905Z,100061.84
2018-09-25T15:18:57.582Z,100061.31
2018-09-25T15:21:32.383Z,100062.20
2018-09-25T15:24:07.088Z,100058.63
2018-09-25T15:26:41.848Z,100060.55
2018-09-25T15:29:16.839Z,100061.22
2018-09-25T15:31:51.388Z,100054.59
2018-09-25T15:34:26.334Z,100050.65
2018-09-25T15:37:00.960Z,100042.22
2018-09-25T15:39:35.727Z,100035.64
2018-09-25T15:42:10.672Z,100042.13
2018-09-25T15:44:45.507Z,100043.27
2018-09-25T15:47:20.249Z,100043.04
2018-09-25T15:49:54.952Z,100035.55
2018-09-25T15:52:30.126Z,100045.27
2018-09-25T15:55:04.849Z,100046.50
2018-09-25T15:57:39.765Z,100045.89
2018-09-25T16:00:14.557Z,100038.36
2018-09-25T16:02:49.472Z,100041.47
2018-09-25T16:05:24.136Z,100041.77
2018-09-25T16:07:58.880Z,100047.81
2018-09-25T16:10:33.684Z,100050.42
2018-09-25T16:13:08.555Z,100041.39
2018-09-25T16:15:43.195Z,100047.52
2018-09-25T16:18:18.409Z,100042.53
2018-09-25T16:20:53.524Z,100048.52
2018-09-25T16:23:28.205Z,100050.73
2018-09-25T16:26:03.369Z,100048.05
2018-09-25T16:28:38.139Z,100054.70
2018-09-25T16:31:12.800Z,100055.03
2018-09-25T16:33:47.653Z,100066.05
2018-09-25T16:36:22.665Z,100066.17
2018-09-25T16:38:57.596Z,100068.81
2018-09-25T16:41:32.253Z,100072.00
2018-09-25T16:44:07.536Z,100075.42
2018-09-25T16:46:42.128Z,100076.34
2018-09-25T16:49:16.868Z,100064.17
2018-09-25T16:51:51.613Z,100067.83
2018-09-25T16:54:26.356Z,100064.57
2018-09-25T16:57:01.147Z,100063.45
2018-09-25T16:59:36.185Z,100059.90
2018-09-25T17:02:11.292Z,100051.39
2018-09-25T17:04:46.163Z,100051.75
2018-09-25T17:07:20.760Z,100057.26
2018-09-25T17:09:55.432Z,100060.95
2018-09-25T17:12:30.204Z,100059.11
2018-09-25T17:15:05.195Z,100065.58
2018-09-25T17:17:41.255Z,100065.11
2018-09-25T17:20:16.107Z,100065.62
2018-09-25T17:22:50.991Z,100059.38
2018-09-25T17:25:26.182Z,100055.52
2018-09-25T17:28:01.107Z,100051.98
2018-09-25T17:30:35.816Z,100055.97
2018-09-25T17:33:10.532Z,100048.48
2018-09-25T17:35:45.299Z,100049.76
2018-09-25T17:38:19.863Z,100050.92
2018-09-25T17:40:54.745Z,100055.29
2018-09-25T17:43:29.628Z,100054.23
2018-09-25T17:46:04.761Z,100055.09
2018-09-25T17:48:47.464Z,100060.61
2018-09-25T17:51:22.622Z,100065.03
2018-09-25T17:53:57.217Z,100065.42
2018-09-25T17:56:32.182Z,100068.13
2018-09-25T17:59:06.924Z,100078.80
2018-09-25T18:01:42.020Z,100082.42
2018-09-25T18:04:16.904Z,100078.84
2018-09-25T18:06:51.775Z,100085.65
2018-09-25T18:09:26.780Z,100086.05
2018-09-25T18:12:01.404Z,100092.52
2018-09-25T18:14:36.086Z,100096.77
2018-09-25T18:17:11.039Z,100095.98
2018-09-25T18:19:46.285Z,100102.34
2018-09-25T18:22:21.235Z,100104.81
2018-09-25T18:24:56.245Z,100114.16
2018-09-25T18:27:30.951Z,100117.48
2018-09-25T18:30:05.728Z,100113.69
2018-09-25T18:32:40.468Z,100124.52
2018-09-25T18:35:15.314Z,100123.27
2018-09-25T18:37:50.068Z,100123.58
2018-09-25T18:40:24.615Z,100121.34
2018-09-25T18:42:59.460Z,100131.34
2018-09-25T18:45:34.245Z,100123.55
2018-09-25T18:48:09.127Z,100127.93
2018-09-25T18:50:44.602Z,100121.05
2018-09-25T18:53:19.609Z,100122.18
2018-09-25T18:55:54.498Z,100124.07
2018-09-25T18:58:29.172Z,100134.69
2018-09-25T19:01:04.187Z,100130.02
2018-09-25T19:03:38.905Z,100128.56
2018-09-25T19:06:13.676Z,100138.89
2018-09-25T19:08:48.404Z,100136.61
2018-09-25T19:11:23.637Z,100138.09
2018-09-25T19:13:58.412Z,100138.59
2018-09-25T19:16:33.214Z,100148.66
2018-09-25T19:19:08.236Z,100147.45
2018-09-25T19:21:43.347Z,100149.92
2018-09-25T19:24:17.971Z,100157.12
2018-09-25T19:26:52.752Z,100167.36
2018-09-25T19:29:27.581Z,100171.48
2018-09-25T19:32:02.438Z,100166.05
2018-09-25T19:34:37.349Z,100164.39
2018-09-25T19:37:12.676Z,100154.11
2018-09-25T19:39:47.425Z,100149.94
2018-09-25T19:42:22.423Z,100147.39
2018-09-25T19:44:57.352Z,100140.33
2018-09-25T19:47:31.996Z,100146.19
2018-09-25T19:50:06.840Z,100158.76
2018-09-25T19:52:41.720Z,100167.66
2018-09-25T19:55:16.583Z,100164.41
2018-09-25T19:57:51.298Z,100165.44
2018-09-25T20:00:26.129Z,100170.02
2018-09-25T20:03:00.855Z,100171.69
2018-09-25T20:05:35.613Z,100176.35
2018-09-25T20:08:10.492Z,100165.85
2018-09-25T20:10:45.307Z,100165.61
2018-09-25T20:13:20.153Z,100160.55
2018-09-25T20:15:55.115Z,100157.94
2018-09-25T20:18:30.091Z,100155.67
2018-09-25T20:21:04.893Z,100149.43
2018-09-25T20:23:39.721Z,100152.55
2018-09-25T20:26:14.375Z,100144.19
2018-09-25T20:28:49.162Z,100147.39
2018-09-25T20:31:23.917Z,100144.28
2018-09-25T20:33:58.570Z,100147.20
2018-09-25T20:36:33.180Z,100147.48
2018-09-25T20:39:07.829Z,100145.84
2018-09-25T20:41:42.731Z,100151.70
2018-09-25T20:44:17.541Z,100148.98
2018-09-25T20:46:52.185Z,100141.36
2018-09-25T20:49:26.951Z,100145.87
2018-09-25T20:52:01.874Z,100145.19
2018-09-25T20:54:36.892Z,100158.41
2018-09-25T20:57:12.151Z,100159.11
2018-09-25T20:59:47.015Z,100157.99
2018-09-25T21:02:21.915Z,100158.70
2018-09-25T21:04:56.535Z,100157.91
2018-09-25T21:07:31.191Z,100156.31
2018-09-25T21:10:05.935Z,100157.16
2018-09-25T21:12:40.989Z,100158.64
2018-09-25T21:15:16.311Z,100151.86
2018-09-25T21:17:51.239Z,100150.13
2018-09-25T21:20:26.071Z,100144.59
2018-09-25T21:23:00.813Z,100137.77
2018-09-25T21:25:35.927Z,100138.36
2018-09-25T21:28:10.580Z,100141.77
2018-09-25T21:30:45.317Z,100139.16
2018-09-25T21:33:20.150Z,100143.20
2018-09-25T21:35:55.079Z,100141.70
2018-09-25T21:38:29.851Z,100143.84
2018-09-25T21:41:04.588Z,100143.84
2018-09-25T21:43:39.282Z,100146.70
2018-09-25T21:46:14.549Z,100149.98
2018-09-25T21:48:49.435Z,100142.22
2018-09-25T21:51:24.489Z,100134.35
2018-09-25T21:53:59.284Z,100133.22
2018-09-25T21:56:33.932Z,100131.63
2018-09-25T21:59:08.732Z,100123.49
2018-09-25T22:01:43.468Z,100124.58
2018-09-25T22:04:18.057Z,100124.79
2018-09-25T22:06:52.671Z,100125.67
2018-09-25T22:09:27.400Z,100121.39
2018-09-25T22:12:02.181Z,100115.39
2018-09-25T22:14:36.956Z,100111.28
2018-09-25T22:17:11.787Z,100112.41
2018-09-25T22:19:46.435Z,100117.80
2018-09-25T22:22:21.001Z,100120.11
2018-09-25T22:24:55.711Z,100114.34
2018-09-25T22:27:30.603Z,100103.77
2018-09-25T22:30:05.256Z,100099.60
2018-09-25T22:32:40.045Z,100098.91
2018-09-25T22:35:15.055Z,100089.02
2018-09-25T22:37:50.121Z,100093.91
2018-09-25T22:40:24.748Z,100092.16
2018-09-25T22:42:59.303Z,100083.98
2018-09-25T22:45:34.023Z,100084.06
2018-09-25T22:48:08.669Z,100087.95
2018-09-25T22:50:43.671Z,100087.45
2018-09-25T22:53:18.621Z,100079.78
2018-09-25T22:55:53.472Z,100080.23
2018-09-25T22:58:28.248Z,100073.94
2018-09-25T23:01:02.899Z,100076.98
2018-09-25T23:03:37.564Z,100076.61
2018-09-25T23:06:12.685Z,100067.10
2018-09-25T23:08:47.454Z,100062.64
2018-09-25T23:11:22.216Z,100058.55
2018-09-25T23:13:57.212Z,100058.20
2018-09-25T23:16:31.859Z,100063.05
2018-09-25T23:19:06.824Z,100056.52
2018-09-25T23:21:42.786Z,100058.80
2018-09-25T23:24:17.702Z,100059.75
2018-09-25T23:26:52.340Z,100054.78
2018-09-25T23:29:27.208Z,100054.70
2018-09-25T23:32:02.161Z,100049.59
2018-09-25T23:34:36.975Z,100051.84
2018-09-25T23:37:11.882Z,100051.06
2018-09-25T23:39:52.552Z,100054.96
2018-09-25T23:42:36.215Z,100060.67
2018-09-25T23:45:11.044Z,100053.03
2018-09-25T23:47:49.592Z,100048.20
2018-09-25T23:50:24.699Z,100046.55
2018-09-25T23:53:01.229Z,100046.86
2018-09-25T23:55:41.824Z,100045.56
2018-09-25T23:58:16.054Z,100035.23
